sensor_id;sensor_type;location;lat;lon;timestamp;temperature;humidity
78731;SHT31;68055;51.978;5.658;2023-05-07T00:00:38;18.7;66.9
78731;SHT31;68055;51.978;5.658;2023-05-07T00:03:08;18.7;67.1
78731;SHT31;68055;51.978;5.658;2023-05-07T00:05:38;18.8;66.7
78731;SHT31;68055;51.978;5.658;2023-05-07T00:08:08;18.8;66.2
78731;SHT31;68055;51.978;5.658;2023-05-07T00:10:38;18.8;66.6
78731;SHT31;68055;51.978;5.658;2023-05-07T00:13:08;18.8;66.7
78731;SHT31;68055;51.978;5.658;2023-05-07T00:15:38;18.8;66.7
78731;SHT31;68055;51.978;5.658;2023-05-07T00:18:07;18.8;66.4
78731;SHT31;68055;51.978;5.658;2023-05-07T00:20:37;18.8;66.3
78731;SHT31;68055;51.978;5.658;2023-05-07T00:23:07;18.8;66.6
78731;SHT31;68055;51.978;5.658;2023-05-07T00:25:36;18.8;66.9
78731;SHT31;68055;51.978;5.658;2023-05-07T00:28:06;18.8;66.6
78731;SHT31;68055;51.978;5.658;2023-05-07T00:30:35;18.8;66.6
78731;SHT31;68055;51.978;5.658;2023-05-07T00:33:05;18.8;66.5
78731;SHT31;68055;51.978;5.658;2023-05-07T00:35:35;18.7;66.4
78731;SHT31;68055;51.978;5.658;2023-05-07T00:38:05;18.7;66.6
78731;SHT31;68055;51.978;5.658;2023-05-07T00:40:34;18.7;65.8
78731;SHT31;68055;51.978;5.658;2023-05-07T00:43:04;18.7;66.2
78731;SHT31;68055;51.978;5.658;2023-05-07T00:45:34;18.7;66.3
78731;SHT31;68055;51.978;5.658;2023-05-07T00:48:04;18.7;66.0
78731;SHT31;68055;51.978;5.658;2023-05-07T00:50:34;18.7;66.1
78731;SHT31;68055;51.978;5.658;2023-05-07T00:53:04;18.7;66.4
78731;SHT31;68055;51.978;5.658;2023-05-07T00:55:35;18.7;66.2
78731;SHT31;68055;51.978;5.658;2023-05-07T00:58:06;18.6;66.4
78731;SHT31;68055;51.978;5.658;2023-05-07T01:00:36;18.6;66.4
78731;SHT31;68055;51.978;5.658;2023-05-07T01:03:05;18.6;66.2
78731;SHT31;68055;51.978;5.658;2023-05-07T01:05:35;18.6;66.1
78731;SHT31;68055;51.978;5.658;2023-05-07T01:08:05;18.6;65.9
78731;SHT31;68055;51.978;5.658;2023-05-07T01:10:35;18.6;65.7
78731;SHT31;68055;51.978;5.658;2023-05-07T01:13:06;18.6;65.9
78731;SHT31;68055;51.978;5.658;2023-05-07T01:15:36;18.6;65.6
78731;SHT31;68055;51.978;5.658;2023-05-07T01:18:08;18.6;65.8
78731;SHT31;68055;51.978;5.658;2023-05-07T01:20:38;18.6;66.2
78731;SHT31;68055;51.978;5.658;2023-05-07T01:23:08;18.6;65.9
78731;SHT31;68055;51.978;5.658;2023-05-07T01:25:40;18.6;66.1
78731;SHT31;68055;51.978;5.658;2023-05-07T01:28:09;18.6;66.2
78731;SHT31;68055;51.978;5.658;2023-05-07T01:30:44;18.6;66.2
78731;SHT31;68055;51.978;5.658;2023-05-07T01:33:16;18.6;66.0
78731;SHT31;68055;51.978;5.658;2023-05-07T01:35:51;18.6;66.0
78731;SHT31;68055;51.978;5.658;2023-05-07T01:38:23;18.6;65.9
78731;SHT31;68055;51.978;5.658;2023-05-07T01:40:52;18.6;66.3
78731;SHT31;68055;51.978;5.658;2023-05-07T01:43:22;18.6;66.2
78731;SHT31;68055;51.978;5.658;2023-05-07T01:45:53;18.6;66.0
78731;SHT31;68055;51.978;5.658;2023-05-07T01:48:24;18.6;65.8
78731;SHT31;68055;51.978;5.658;2023-05-07T01:50:55;18.6;65.7
78731;SHT31;68055;51.978;5.658;2023-05-07T01:53:27;18.6;66.0
78731;SHT31;68055;51.978;5.658;2023-05-07T01:55:56;18.6;65.4
78731;SHT31;68055;51.978;5.658;2023-05-07T01:58:28;18.6;65.2
78731;SHT31;68055;51.978;5.658;2023-05-07T02:00:57;18.6;65.6
78731;SHT31;68055;51.978;5.658;2023-05-07T02:03:29;18.6;65.2
78731;SHT31;68055;51.978;5.658;2023-05-07T02:05:59;18.6;65.4
78731;SHT31;68055;51.978;5.658;2023-05-07T02:08:28;18.6;65.4
78731;SHT31;68055;51.978;5.658;2023-05-07T02:10:58;18.6;65.4
78731;SHT31;68055;51.978;5.658;2023-05-07T02:13:30;18.6;65.1
78731;SHT31;68055;51.978;5.658;2023-05-07T02:15:59;18.6;65.4
78731;SHT31;68055;51.978;5.658;2023-05-07T02:18:29;18.6;65.1
78731;SHT31;68055;51.978;5.658;2023-05-07T02:20:59;18.6;65.4
78731;SHT31;68055;51.978;5.658;2023-05-07T02:23:29;18.6;65.6
78731;SHT31;68055;51.978;5.658;2023-05-07T02:25:58;18.6;65.7
78731;SHT31;68055;51.978;5.658;2023-05-07T02:28:28;18.6;65.8
78731;SHT31;68055;51.978;5.658;2023-05-07T02:30:58;18.6;65.1
78731;SHT31;68055;51.978;5.658;2023-05-07T02:33:28;18.6;65.4
78731;SHT31;68055;51.978;5.658;2023-05-07T02:36:08;18.6;65.5
78731;SHT31;68055;51.978;5.658;2023-05-07T02:38:38;18.6;65.0
78731;SHT31;68055;51.978;5.658;2023-05-07T02:41:07;18.6;65.3
78731;SHT31;68055;51.978;5.658;2023-05-07T02:43:40;18.6;65.0
78731;SHT31;68055;51.978;5.658;2023-05-07T02:46:10;18.5;65.7
78731;SHT31;68055;51.978;5.658;2023-05-07T02:48:39;18.5;65.5
78731;SHT31;68055;51.978;5.658;2023-05-07T02:51:09;18.5;65.3
78731;SHT31;68055;51.978;5.658;2023-05-07T02:53:39;18.5;65.9
78731;SHT31;68055;51.978;5.658;2023-05-07T02:56:09;18.5;65.4
78731;SHT31;68055;51.978;5.658;2023-05-07T02:58:38;18.5;65.9
78731;SHT31;68055;51.978;5.658;2023-05-07T03:01:09;18.5;65.8
78731;SHT31;68055;51.978;5.658;2023-05-07T03:03:41;18.5;65.6
78731;SHT31;68055;51.978;5.658;2023-05-07T03:06:10;18.6;65.7
78731;SHT31;68055;51.978;5.658;2023-05-07T03:08:40;18.6;63.9
78731;SHT31;68055;51.978;5.658;2023-05-07T03:11:10;18.6;64.9
78731;SHT31;68055;51.978;5.658;2023-05-07T03:13:39;18.5;64.9
78731;SHT31;68055;51.978;5.658;2023-05-07T03:16:09;18.5;64.9
78731;SHT31;68055;51.978;5.658;2023-05-07T03:18:39;18.5;64.9
78731;SHT31;68055;51.978;5.658;2023-05-07T03:21:10;18.5;65.0
78731;SHT31;68055;51.978;5.658;2023-05-07T03:23:42;18.5;64.6
78731;SHT31;68055;51.978;5.658;2023-05-07T03:26:12;18.5;65.0
78731;SHT31;68055;51.978;5.658;2023-05-07T03:28:41;18.5;64.8
78731;SHT31;68055;51.978;5.658;2023-05-07T03:31:13;18.5;64.5
78731;SHT31;68055;51.978;5.658;2023-05-07T03:33:51;18.4;65.0
78731;SHT31;68055;51.978;5.658;2023-05-07T03:36:22;18.4;64.6
78731;SHT31;68055;51.978;5.658;2023-05-07T03:38:52;18.4;65.3
78731;SHT31;68055;51.978;5.658;2023-05-07T03:41:22;18.4;64.9
78731;SHT31;68055;51.978;5.658;2023-05-07T03:43:53;18.4;65.4
78731;SHT31;68055;51.978;5.658;2023-05-07T03:46:24;18.4;65.4
78731;SHT31;68055;51.978;5.658;2023-05-07T03:48:55;18.4;65.6
78731;SHT31;68055;51.978;5.658;2023-05-07T03:51:25;18.4;65.1
78731;SHT31;68055;51.978;5.658;2023-05-07T03:53:55;18.4;64.9
78731;SHT31;68055;51.978;5.658;2023-05-07T03:56:25;18.4;65.4
78731;SHT31;68055;51.978;5.658;2023-05-07T03:58:57;18.4;65.6
78731;SHT31;68055;51.978;5.658;2023-05-07T04:01:27;18.3;64.8
78731;SHT31;68055;51.978;5.658;2023-05-07T04:03:57;18.3;65.2
78731;SHT31;68055;51.978;5.658;2023-05-07T04:06:26;18.3;65.2
78731;SHT31;68055;51.978;5.658;2023-05-07T04:08:56;18.3;65.5
78731;SHT31;68055;51.978;5.658;2023-05-07T04:11:27;18.3;65.6
78731;SHT31;68055;51.978;5.658;2023-05-07T04:13:56;18.3;65.1
78731;SHT31;68055;51.978;5.658;2023-05-07T04:16:26;18.3;65.5
78731;SHT31;68055;51.978;5.658;2023-05-07T04:18:55;18.3;65.3
78731;SHT31;68055;51.978;5.658;2023-05-07T04:21:25;18.3;65.8
78731;SHT31;68055;51.978;5.658;2023-05-07T04:23:56;18.4;65.2
78731;SHT31;68055;51.978;5.658;2023-05-07T04:26:25;18.4;65.5
78731;SHT31;68055;51.978;5.658;2023-05-07T04:28:55;18.4;65.4
78731;SHT31;68055;51.978;5.658;2023-05-07T04:31:26;18.4;65.8
78731;SHT31;68055;51.978;5.658;2023-05-07T04:33:56;18.3;66.1
78731;SHT31;68055;51.978;5.658;2023-05-07T04:36:25;18.3;65.2
78731;SHT31;68055;51.978;5.658;2023-05-07T04:38:58;18.3;64.8
78731;SHT31;68055;51.978;5.658;2023-05-07T04:41:28;18.3;65.4
78731;SHT31;68055;51.978;5.658;2023-05-07T04:43:58;18.3;65.4
78731;SHT31;68055;51.978;5.658;2023-05-07T04:46:28;18.3;64.8
78731;SHT31;68055;51.978;5.658;2023-05-07T04:48:57;18.3;65.1
78731;SHT31;68055;51.978;5.658;2023-05-07T04:51:27;18.3;65.1
78731;SHT31;68055;51.978;5.658;2023-05-07T04:53:57;18.3;65.3
78731;SHT31;68055;51.978;5.658;2023-05-07T04:56:29;18.3;65.4
78731;SHT31;68055;51.978;5.658;2023-05-07T04:58:59;18.3;65.3
78731;SHT31;68055;51.978;5.658;2023-05-07T05:01:28;18.3;65.9
78731;SHT31;68055;51.978;5.658;2023-05-07T05:03:58;18.3;65.6
78731;SHT31;68055;51.978;5.658;2023-05-07T05:06:29;18.3;65.6
78731;SHT31;68055;51.978;5.658;2023-05-07T05:08:59;18.3;65.8
78731;SHT31;68055;51.978;5.658;2023-05-07T05:11:29;18.3;66.1
78731;SHT31;68055;51.978;5.658;2023-05-07T05:13:59;18.3;65.7
78731;SHT31;68055;51.978;5.658;2023-05-07T05:16:31;18.3;65.7
78731;SHT31;68055;51.978;5.658;2023-05-07T05:19:01;18.3;65.7
78731;SHT31;68055;51.978;5.658;2023-05-07T05:21:32;18.2;66.3
78731;SHT31;68055;51.978;5.658;2023-05-07T05:24:01;18.2;65.8
78731;SHT31;68055;51.978;5.658;2023-05-07T05:26:31;18.2;66.1
78731;SHT31;68055;51.978;5.658;2023-05-07T05:29:01;18.2;65.9
78731;SHT31;68055;51.978;5.658;2023-05-07T05:31:31;18.2;66.2
78731;SHT31;68055;51.978;5.658;2023-05-07T05:34:02;18.2;66.5
78731;SHT31;68055;51.978;5.658;2023-05-07T05:36:32;18.2;66.3
78731;SHT31;68055;51.978;5.658;2023-05-07T05:39:01;18.2;67.1
78731;SHT31;68055;51.978;5.658;2023-05-07T05:41:31;18.2;67.1
78731;SHT31;68055;51.978;5.658;2023-05-07T05:44:01;18.2;66.7
78731;SHT31;68055;51.978;5.658;2023-05-07T05:46:30;18.2;66.2
78731;SHT31;68055;51.978;5.658;2023-05-07T05:49:02;18.2;66.6
78731;SHT31;68055;51.978;5.658;2023-05-07T05:51:32;18.2;66.6
78731;SHT31;68055;51.978;5.658;2023-05-07T05:54:01;18.2;66.8
78731;SHT31;68055;51.978;5.658;2023-05-07T05:56:32;18.3;67.0
78731;SHT31;68055;51.978;5.658;2023-05-07T05:59:02;18.3;66.7
78731;SHT31;68055;51.978;5.658;2023-05-07T06:01:32;18.3;66.6
78731;SHT31;68055;51.978;5.658;2023-05-07T06:04:02;18.3;66.7
78731;SHT31;68055;51.978;5.658;2023-05-07T06:06:31;18.3;67.1
78731;SHT31;68055;51.978;5.658;2023-05-07T06:09:01;18.3;67.0
78731;SHT31;68055;51.978;5.658;2023-05-07T06:11:31;18.3;66.8
78731;SHT31;68055;51.978;5.658;2023-05-07T06:14:01;18.4;67.0
78731;SHT31;68055;51.978;5.658;2023-05-07T06:16:31;18.4;67.1
78731;SHT31;68055;51.978;5.658;2023-05-07T06:19:00;18.4;66.8
78731;SHT31;68055;51.978;5.658;2023-05-07T06:21:30;18.4;66.8
78731;SHT31;68055;51.978;5.658;2023-05-07T06:24:00;18.4;66.7
78731;SHT31;68055;51.978;5.658;2023-05-07T06:26:29;18.5;67.2
78731;SHT31;68055;51.978;5.658;2023-05-07T06:28:59;18.5;66.7
78731;SHT31;68055;51.978;5.658;2023-05-07T06:31:30;18.5;66.5
78731;SHT31;68055;51.978;5.658;2023-05-07T06:34:01;18.6;66.4
78731;SHT31;68055;51.978;5.658;2023-05-07T06:36:30;18.6;66.2
78731;SHT31;68055;51.978;5.658;2023-05-07T06:39:00;18.6;66.7
78731;SHT31;68055;51.978;5.658;2023-05-07T06:41:30;18.6;66.9
78731;SHT31;68055;51.978;5.658;2023-05-07T06:44:00;18.6;67.1
78731;SHT31;68055;51.978;5.658;2023-05-07T06:46:29;18.6;67.2
78731;SHT31;68055;51.978;5.658;2023-05-07T06:48:59;18.6;67.4
78731;SHT31;68055;51.978;5.658;2023-05-07T06:51:29;18.6;67.7
78731;SHT31;68055;51.978;5.658;2023-05-07T06:53:59;18.6;67.6
78731;SHT31;68055;51.978;5.658;2023-05-07T06:56:29;18.7;67.8
78731;SHT31;68055;51.978;5.658;2023-05-07T06:58:59;18.7;67.0
78731;SHT31;68055;51.978;5.658;2023-05-07T07:01:29;18.8;66.9
78731;SHT31;68055;51.978;5.658;2023-05-07T07:03:59;18.8;66.8
78731;SHT31;68055;51.978;5.658;2023-05-07T07:06:29;18.9;66.2
78731;SHT31;68055;51.978;5.658;2023-05-07T07:09:02;18.9;66.3
78731;SHT31;68055;51.978;5.658;2023-05-07T07:11:32;19.0;65.9
78731;SHT31;68055;51.978;5.658;2023-05-07T07:14:02;19.0;66.1
78731;SHT31;68055;51.978;5.658;2023-05-07T07:16:32;19.0;65.9
78731;SHT31;68055;51.978;5.658;2023-05-07T07:19:02;19.1;65.7
78731;SHT31;68055;51.978;5.658;2023-05-07T07:21:32;19.1;66.3
78731;SHT31;68055;51.978;5.658;2023-05-07T07:24:02;19.1;66.6
78731;SHT31;68055;51.978;5.658;2023-05-07T07:26:31;19.1;65.6
78731;SHT31;68055;51.978;5.658;2023-05-07T07:29:01;19.1;65.8
78731;SHT31;68055;51.978;5.658;2023-05-07T07:31:31;19.1;65.9
78731;SHT31;68055;51.978;5.658;2023-05-07T07:34:01;19.1;66.2
78731;SHT31;68055;51.978;5.658;2023-05-07T07:36:30;19.1;66.1
78731;SHT31;68055;51.978;5.658;2023-05-07T07:39:00;19.1;66.4
78731;SHT31;68055;51.978;5.658;2023-05-07T07:41:29;19.1;67.0
78731;SHT31;68055;51.978;5.658;2023-05-07T07:43:59;19.1;66.6
78731;SHT31;68055;51.978;5.658;2023-05-07T07:46:33;19.1;66.8
78731;SHT31;68055;51.978;5.658;2023-05-07T07:49:02;19.2;67.0
78731;SHT31;68055;51.978;5.658;2023-05-07T07:51:32;19.2;66.3
78731;SHT31;68055;51.978;5.658;2023-05-07T07:54:03;19.2;66.7
78731;SHT31;68055;51.978;5.658;2023-05-07T07:56:34;19.2;67.7
78731;SHT31;68055;51.978;5.658;2023-05-07T07:59:03;19.3;67.7
78731;SHT31;68055;51.978;5.658;2023-05-07T08:01:33;19.4;67.5
78731;SHT31;68055;51.978;5.658;2023-05-07T08:04:03;19.4;66.4
78731;SHT31;68055;51.978;5.658;2023-05-07T08:06:33;19.5;66.4
78731;SHT31;68055;51.978;5.658;2023-05-07T08:09:03;19.6;66.3
78731;SHT31;68055;51.978;5.658;2023-05-07T08:11:32;19.6;65.4
78731;SHT31;68055;51.978;5.658;2023-05-07T08:14:04;19.7;64.9
78731;SHT31;68055;51.978;5.658;2023-05-07T08:16:34;19.7;65.3
78731;SHT31;68055;51.978;5.658;2023-05-07T08:19:04;19.8;64.6
78731;SHT31;68055;51.978;5.658;2023-05-07T08:21:34;19.8;64.9
78731;SHT31;68055;51.978;5.658;2023-05-07T08:24:04;19.9;65.3
78731;SHT31;68055;51.978;5.658;2023-05-07T08:26:34;19.9;64.3
78731;SHT31;68055;51.978;5.658;2023-05-07T08:29:06;20.0;64.4
78731;SHT31;68055;51.978;5.658;2023-05-07T08:31:37;20.0;64.8
78731;SHT31;68055;51.978;5.658;2023-05-07T08:34:07;20.1;64.6
78731;SHT31;68055;51.978;5.658;2023-05-07T08:36:36;20.2;64.5
78731;SHT31;68055;51.978;5.658;2023-05-07T08:39:09;20.2;64.1
78731;SHT31;68055;51.978;5.658;2023-05-07T08:41:39;20.3;62.7
78731;SHT31;68055;51.978;5.658;2023-05-07T08:44:13;20.3;63.0
78731;SHT31;68055;51.978;5.658;2023-05-07T08:46:45;20.4;63.8
78731;SHT31;68055;51.978;5.658;2023-05-07T08:49:17;20.5;63.6
78731;SHT31;68055;51.978;5.658;2023-05-07T08:51:47;20.6;62.7
78731;SHT31;68055;51.978;5.658;2023-05-07T08:54:18;20.7;62.2
78731;SHT31;68055;51.978;5.658;2023-05-07T08:56:48;20.8;61.0
78731;SHT31;68055;51.978;5.658;2023-05-07T08:59:18;20.9;61.1
78731;SHT31;68055;51.978;5.658;2023-05-07T09:01:48;21.0;60.7
78731;SHT31;68055;51.978;5.658;2023-05-07T09:04:17;21.1;60.8
78731;SHT31;68055;51.978;5.658;2023-05-07T09:06:47;21.3;59.7
78731;SHT31;68055;51.978;5.658;2023-05-07T09:09:18;21.4;60.2
78731;SHT31;68055;51.978;5.658;2023-05-07T09:11:48;21.5;59.0
78731;SHT31;68055;51.978;5.658;2023-05-07T09:14:21;21.7;59.3
78731;SHT31;68055;51.978;5.658;2023-05-07T09:16:52;21.9;58.2
78731;SHT31;68055;51.978;5.658;2023-05-07T09:19:25;22.2;58.0
78731;SHT31;68055;51.978;5.658;2023-05-07T09:22:00;22.4;56.6
78731;SHT31;68055;51.978;5.658;2023-05-07T09:24:31;22.5;56.5
78731;SHT31;68055;51.978;5.658;2023-05-07T09:27:02;22.7;55.2
78731;SHT31;68055;51.978;5.658;2023-05-07T09:29:34;22.9;54.4
78731;SHT31;68055;51.978;5.658;2023-05-07T09:32:05;23.0;54.3
78731;SHT31;68055;51.978;5.658;2023-05-07T09:34:36;23.0;53.9
78731;SHT31;68055;51.978;5.658;2023-05-07T09:37:06;23.1;52.8
78731;SHT31;68055;51.978;5.658;2023-05-07T09:39:43;23.2;53.0
78731;SHT31;68055;51.978;5.658;2023-05-07T09:42:14;23.2;53.5
78731;SHT31;68055;51.978;5.658;2023-05-07T09:44:45;23.3;53.1
78731;SHT31;68055;51.978;5.658;2023-05-07T09:47:20;23.3;53.8
78731;SHT31;68055;51.978;5.658;2023-05-07T09:49:56;23.4;54.0
78731;SHT31;68055;51.978;5.658;2023-05-07T09:52:28;23.4;53.4
78731;SHT31;68055;51.978;5.658;2023-05-07T09:55:02;23.5;51.4
78731;SHT31;68055;51.978;5.658;2023-05-07T09:57:34;23.6;52.1
78731;SHT31;68055;51.978;5.658;2023-05-07T10:00:09;23.7;51.5
78731;SHT31;68055;51.978;5.658;2023-05-07T10:02:42;23.7;51.4
78731;SHT31;68055;51.978;5.658;2023-05-07T10:05:16;23.8;50.7
78731;SHT31;68055;51.978;5.658;2023-05-07T10:07:48;23.8;50.5
78731;SHT31;68055;51.978;5.658;2023-05-07T10:10:18;23.8;50.6
78731;SHT31;68055;51.978;5.658;2023-05-07T10:12:48;23.8;50.7
78731;SHT31;68055;51.978;5.658;2023-05-07T10:15:19;23.8;51.2
78731;SHT31;68055;51.978;5.658;2023-05-07T10:17:49;23.9;51.4
78731;SHT31;68055;51.978;5.658;2023-05-07T10:20:21;23.9;51.2
78731;SHT31;68055;51.978;5.658;2023-05-07T10:22:52;23.9;50.3
78731;SHT31;68055;51.978;5.658;2023-05-07T10:25:28;24.0;50.3
78731;SHT31;68055;51.978;5.658;2023-05-07T10:28:03;24.0;50.3
78731;SHT31;68055;51.978;5.658;2023-05-07T10:30:44;24.0;50.8
78731;SHT31;68055;51.978;5.658;2023-05-07T10:33:21;24.0;50.1
78731;SHT31;68055;51.978;5.658;2023-05-07T10:35:57;24.1;49.7
78731;SHT31;68055;51.978;5.658;2023-05-07T10:38:28;24.1;50.0
78731;SHT31;68055;51.978;5.658;2023-05-07T10:41:01;24.1;50.0
78731;SHT31;68055;51.978;5.658;2023-05-07T10:43:51;24.1;50.2
78731;SHT31;68055;51.978;5.658;2023-05-07T10:46:22;24.2;50.5
78731;SHT31;68055;51.978;5.658;2023-05-07T10:49:11;24.2;50.2
78731;SHT31;68055;51.978;5.658;2023-05-07T10:51:43;24.3;49.4
78731;SHT31;68055;51.978;5.658;2023-05-07T10:54:23;24.4;48.9
78731;SHT31;68055;51.978;5.658;2023-05-07T10:56:53;24.4;48.5
78731;SHT31;68055;51.978;5.658;2023-05-07T10:59:34;24.5;49.7
78731;SHT31;68055;51.978;5.658;2023-05-07T11:02:09;24.6;48.8
78731;SHT31;68055;51.978;5.658;2023-05-07T11:04:41;24.7;49.7
78731;SHT31;68055;51.978;5.658;2023-05-07T11:07:28;24.8;48.4
78731;SHT31;68055;51.978;5.658;2023-05-07T11:10:03;24.9;48.9
78731;SHT31;68055;51.978;5.658;2023-05-07T11:12:52;24.9;48.1
78731;SHT31;68055;51.978;5.658;2023-05-07T11:17:15;25.0;48.2
78731;SHT31;68055;51.978;5.658;2023-05-07T11:19:53;25.0;47.7
78731;SHT31;68055;51.978;5.658;2023-05-07T11:22:38;25.1;47.9
78731;SHT31;68055;51.978;5.658;2023-05-07T11:25:09;25.1;48.2
78731;SHT31;68055;51.978;5.658;2023-05-07T11:27:39;25.2;47.6
78731;SHT31;68055;51.978;5.658;2023-05-07T11:30:18;25.2;47.4
78731;SHT31;68055;51.978;5.658;2023-05-07T11:32:48;25.2;48.3
78731;SHT31;68055;51.978;5.658;2023-05-07T11:35:22;25.3;48.8
78731;SHT31;68055;51.978;5.658;2023-05-07T11:38:01;25.3;47.9
78731;SHT31;68055;51.978;5.658;2023-05-07T11:40:31;25.4;47.5
78731;SHT31;68055;51.978;5.658;2023-05-07T11:43:11;25.4;47.1
78731;SHT31;68055;51.978;5.658;2023-05-07T11:45:41;25.5;46.5
78731;SHT31;68055;51.978;5.658;2023-05-07T11:48:12;25.5;46.7
78731;SHT31;68055;51.978;5.658;2023-05-07T11:50:53;25.6;45.7
78731;SHT31;68055;51.978;5.658;2023-05-07T11:53:24;25.6;46.3
78731;SHT31;68055;51.978;5.658;2023-05-07T11:55:55;25.7;46.0
78731;SHT31;68055;51.978;5.658;2023-05-07T11:58:25;25.7;47.2
78731;SHT31;68055;51.978;5.658;2023-05-07T12:00:54;25.7;47.2
78731;SHT31;68055;51.978;5.658;2023-05-07T12:03:24;25.7;47.7
78731;SHT31;68055;51.978;5.658;2023-05-07T12:05:54;25.8;47.6
78731;SHT31;68055;51.978;5.658;2023-05-07T12:08:24;25.8;47.2
78731;SHT31;68055;51.978;5.658;2023-05-07T12:10:54;25.8;46.6
78731;SHT31;68055;51.978;5.658;2023-05-07T12:13:25;25.8;45.9
78731;SHT31;68055;51.978;5.658;2023-05-07T12:15:56;25.8;46.8
78731;SHT31;68055;51.978;5.658;2023-05-07T12:18:26;25.9;46.6
78731;SHT31;68055;51.978;5.658;2023-05-07T12:20:57;25.9;46.0
78731;SHT31;68055;51.978;5.658;2023-05-07T12:23:28;26.0;45.5
78731;SHT31;68055;51.978;5.658;2023-05-07T12:25:59;26.0;46.3
78731;SHT31;68055;51.978;5.658;2023-05-07T12:28:29;26.0;45.3
78731;SHT31;68055;51.978;5.658;2023-05-07T12:31:00;26.0;44.8
78731;SHT31;68055;51.978;5.658;2023-05-07T12:33:31;26.1;44.5
78731;SHT31;68055;51.978;5.658;2023-05-07T12:36:03;26.1;45.5
78731;SHT31;68055;51.978;5.658;2023-05-07T12:38:38;26.2;46.2
78731;SHT31;68055;51.978;5.658;2023-05-07T12:41:09;26.2;44.5
78731;SHT31;68055;51.978;5.658;2023-05-07T12:43:39;26.3;44.5
78731;SHT31;68055;51.978;5.658;2023-05-07T12:46:13;26.3;43.8
78731;SHT31;68055;51.978;5.658;2023-05-07T12:48:45;26.3;44.4
78731;SHT31;68055;51.978;5.658;2023-05-07T12:51:15;26.3;44.6
78731;SHT31;68055;51.978;5.658;2023-05-07T12:53:45;26.4;44.4
78731;SHT31;68055;51.978;5.658;2023-05-07T12:56:16;26.4;44.7
78731;SHT31;68055;51.978;5.658;2023-05-07T12:58:48;26.4;44.6
78731;SHT31;68055;51.978;5.658;2023-05-07T13:01:18;26.4;45.0
78731;SHT31;68055;51.978;5.658;2023-05-07T13:03:49;26.4;43.2
78731;SHT31;68055;51.978;5.658;2023-05-07T13:06:19;26.4;43.3
78731;SHT31;68055;51.978;5.658;2023-05-07T13:08:49;26.4;44.1
78731;SHT31;68055;51.978;5.658;2023-05-07T13:11:18;26.4;43.0
78731;SHT31;68055;51.978;5.658;2023-05-07T13:13:48;26.4;43.7
78731;SHT31;68055;51.978;5.658;2023-05-07T13:16:18;26.4;44.0
78731;SHT31;68055;51.978;5.658;2023-05-07T13:18:47;26.4;44.6
78731;SHT31;68055;51.978;5.658;2023-05-07T13:21:19;26.4;43.8
78731;SHT31;68055;51.978;5.658;2023-05-07T13:23:48;26.5;43.7
78731;SHT31;68055;51.978;5.658;2023-05-07T13:26:18;26.5;43.9
78731;SHT31;68055;51.978;5.658;2023-05-07T13:28:49;26.5;44.3
78731;SHT31;68055;51.978;5.658;2023-05-07T13:31:18;26.6;44.9
78731;SHT31;68055;51.978;5.658;2023-05-07T13:33:48;26.7;45.2
78731;SHT31;68055;51.978;5.658;2023-05-07T13:36:18;26.7;44.9
78731;SHT31;68055;51.978;5.658;2023-05-07T13:38:47;26.8;43.8
78731;SHT31;68055;51.978;5.658;2023-05-07T13:41:17;26.8;43.3
78731;SHT31;68055;51.978;5.658;2023-05-07T13:43:47;26.9;43.3
78731;SHT31;68055;51.978;5.658;2023-05-07T13:46:17;26.9;43.0
78731;SHT31;68055;51.978;5.658;2023-05-07T13:48:46;27.0;42.9
78731;SHT31;68055;51.978;5.658;2023-05-07T13:51:16;27.1;41.1
78731;SHT31;68055;51.978;5.658;2023-05-07T13:53:45;27.1;42.2
78731;SHT31;68055;51.978;5.658;2023-05-07T13:56:15;27.2;42.6
78731;SHT31;68055;51.978;5.658;2023-05-07T13:58:47;27.2;42.0
78731;SHT31;68055;51.978;5.658;2023-05-07T14:01:17;27.2;41.5
78731;SHT31;68055;51.978;5.658;2023-05-07T14:03:46;27.2;42.2
78731;SHT31;68055;51.978;5.658;2023-05-07T14:06:16;27.3;42.5
78731;SHT31;68055;51.978;5.658;2023-05-07T14:08:45;27.3;42.4
78731;SHT31;68055;51.978;5.658;2023-05-07T14:11:15;27.3;43.5
78731;SHT31;68055;51.978;5.658;2023-05-07T14:13:45;27.3;42.3
78731;SHT31;68055;51.978;5.658;2023-05-07T14:16:15;27.4;42.6
78731;SHT31;68055;51.978;5.658;2023-05-07T14:18:44;27.4;42.8
78731;SHT31;68055;51.978;5.658;2023-05-07T14:21:14;27.4;43.1
78731;SHT31;68055;51.978;5.658;2023-05-07T14:23:43;27.4;43.2
78731;SHT31;68055;51.978;5.658;2023-05-07T14:26:14;27.4;42.5
78731;SHT31;68055;51.978;5.658;2023-05-07T14:28:43;27.4;42.7
78731;SHT31;68055;51.978;5.658;2023-05-07T14:31:14;27.4;42.9
78731;SHT31;68055;51.978;5.658;2023-05-07T14:33:43;27.4;42.7
78731;SHT31;68055;51.978;5.658;2023-05-07T14:36:13;27.3;43.1
78731;SHT31;68055;51.978;5.658;2023-05-07T14:38:43;27.3;43.1
78731;SHT31;68055;51.978;5.658;2023-05-07T14:41:13;27.3;43.6
78731;SHT31;68055;51.978;5.658;2023-05-07T14:43:43;27.3;44.1
78731;SHT31;68055;51.978;5.658;2023-05-07T14:46:18;27.3;43.3
78731;SHT31;68055;51.978;5.658;2023-05-07T14:48:47;27.3;43.2
78731;SHT31;68055;51.978;5.658;2023-05-07T14:51:17;27.3;43.1
78731;SHT31;68055;51.978;5.658;2023-05-07T14:53:47;27.3;43.2
78731;SHT31;68055;51.978;5.658;2023-05-07T14:56:17;27.3;43.2
78731;SHT31;68055;51.978;5.658;2023-05-07T14:58:48;27.3;43.3
78731;SHT31;68055;51.978;5.658;2023-05-07T15:01:20;27.3;42.9
78731;SHT31;68055;51.978;5.658;2023-05-07T15:03:50;27.2;43.0
78731;SHT31;68055;51.978;5.658;2023-05-07T15:06:21;27.2;42.9
78731;SHT31;68055;51.978;5.658;2023-05-07T15:08:51;27.2;43.0
78731;SHT31;68055;51.978;5.658;2023-05-07T15:11:21;27.1;43.1
78731;SHT31;68055;51.978;5.658;2023-05-07T15:13:50;27.1;43.4
78731;SHT31;68055;51.978;5.658;2023-05-07T15:16:20;27.1;43.3
78731;SHT31;68055;51.978;5.658;2023-05-07T15:18:50;27.0;43.0
78731;SHT31;68055;51.978;5.658;2023-05-07T15:21:20;27.0;43.0
78731;SHT31;68055;51.978;5.658;2023-05-07T15:23:50;26.9;42.7
78731;SHT31;68055;51.978;5.658;2023-05-07T15:26:19;26.8;43.0
78731;SHT31;68055;51.978;5.658;2023-05-07T15:28:50;26.7;42.1
78731;SHT31;68055;51.978;5.658;2023-05-07T15:31:19;26.5;41.7
78731;SHT31;68055;51.978;5.658;2023-05-07T15:33:49;26.4;41.7
78731;SHT31;68055;51.978;5.658;2023-05-07T15:36:19;26.2;41.8
78731;SHT31;68055;51.978;5.658;2023-05-07T15:38:49;26.0;42.3
78731;SHT31;68055;51.978;5.658;2023-05-07T15:41:19;25.8;43.0
78731;SHT31;68055;51.978;5.658;2023-05-07T15:43:51;25.7;43.5
78731;SHT31;68055;51.978;5.658;2023-05-07T15:46:23;25.5;44.5
78731;SHT31;68055;51.978;5.658;2023-05-07T15:48:54;25.3;46.1
78731;SHT31;68055;51.978;5.658;2023-05-07T15:51:23;25.0;47.9
78731;SHT31;68055;51.978;5.658;2023-05-07T15:53:53;24.7;50.6
78731;SHT31;68055;51.978;5.658;2023-05-07T15:56:23;24.4;52.7
78731;SHT31;68055;51.978;5.658;2023-05-07T15:58:56;24.0;54.4
78731;SHT31;68055;51.978;5.658;2023-05-07T16:01:26;23.7;56.6
78731;SHT31;68055;51.978;5.658;2023-05-07T16:03:56;23.3;56.9
78731;SHT31;68055;51.978;5.658;2023-05-07T16:06:26;23.0;59.5
78731;SHT31;68055;51.978;5.658;2023-05-07T16:08:56;22.8;58.8
78731;SHT31;68055;51.978;5.658;2023-05-07T16:11:26;22.6;59.9
78731;SHT31;68055;51.978;5.658;2023-05-07T16:13:57;22.4;60.0
78731;SHT31;68055;51.978;5.658;2023-05-07T16:16:27;22.3;60.5
78731;SHT31;68055;51.978;5.658;2023-05-07T16:18:57;22.1;60.7
78731;SHT31;68055;51.978;5.658;2023-05-07T16:21:28;21.9;60.2
78731;SHT31;68055;51.978;5.658;2023-05-07T16:23:59;21.8;60.7
78731;SHT31;68055;51.978;5.658;2023-05-07T16:26:30;21.6;62.8